| time (UTC) | temp F | wind direction | speed MPH | gust MPH | rain 1hr in | rain 24hr in | rain mn in | humidity % | barometer mb |
| 20260506190037 | 68 | 34 | 1.0 | 11.0 | 0.00 | 0.00 | 0.00 | 67 | 1020.3 |
| 20260506184535 | 67 | 248 | 2.0 | 12.0 | 0.00 | 0.00 | 0.00 | 68 | 1020.3 |
| 20260506183035 | 67 | 234 | 5.0 | 12.0 | 0.00 | 0.00 | 0.00 | 68 | 1020.4 |
| 20260506181536 | 67 | 180 | 2.0 | 14.0 | 0.00 | 0.00 | 0.00 | 69 | 1020.3 |
| 20260506180042 | 67 | 192 | 4.0 | 10.0 | 0.00 | 0.00 | 0.00 | 67 | 1020.5 |
| 20260506174535 | 67 | 227 | 4.0 | 10.0 | 0.00 | 0.00 | 0.00 | 68 | 1020.6 |
| 20260506173036 | 67 | 298 | 3.0 | 10.0 | 0.00 | 0.00 | 0.00 | 68 | 1020.5 |
| 20260506171543 | 67 | 212 | 5.0 | 10.0 | 0.00 | 0.00 | 0.00 | 69 | 1020.5 |
| 20260506170039 | 66 | 244 | 2.0 | 9.0 | 0.00 | 0.00 | 0.00 | 69 | 1020.6 |
| 20260506164535 | 65 | 233 | 2.0 | 8.0 | 0.00 | 0.00 | 0.00 | 71 | 1020.5 |
| 20260506163040 | 63 | 230 | 2.0 | 7.0 | 0.00 | 0.00 | 0.00 | 74 | 1020.5 |
| 20260506161532 | 63 | 246 | 2.0 | 5.0 | 0.00 | 0.00 | 0.00 | 75 | 1020.7 |
| 20260506160032 | 61 | 221 | 1.0 | 7.0 | 0.00 | 0.00 | 0.00 | 79 | 1020.7 |
| 20260506154536 | 58 | 229 | 1.0 | 4.0 | 0.00 | 0.00 | 0.00 | 81 | 1020.8 |
| 20260506153032 | 56 | 0 | 0.0 | 4.0 | 0.00 | 0.00 | 0.00 | 86 | 1021.0 |
| 20260506151536 | 55 | 0 | 0.0 | 0.0 | 0.00 | 0.00 | 0.00 | 87 | 1021.1 |
| 20260506150033 | 53 | 0 | 0.0 | 0.0 | 0.00 | 0.00 | 0.00 | 90 | 1021.1 |
| 20260506144530 | 52 | 0 | 0.0 | 3.0 | 0.00 | 0.00 | 0.00 | 93 | 1021.0 |
| 20260506143034 | 51 | 0 | 0.0 | 1.0 | 0.00 | 0.00 | 0.00 | 94 | 1021.1 |
| 20260506141533 | 50 | 0 | 0.0 | 0.0 | 0.00 | 0.00 | 0.00 | 95 | 1020.8 |
| 20260506140048 | 48 | 0 | 0.0 | 0.0 | 0.00 | 0.00 | 0.00 | 94 | 1020.7 |
| 20260506134532 | 47 | 0 | 0.0 | 0.0 | 0.00 | 0.00 | 0.00 | 94 | 1020.5 |
| 20260506133044 | 46 | 0 | 0.0 | 1.0 | 0.00 | 0.00 | 0.00 | 94 | 1020.4 |
| 20260506131535 | 46 | 0 | 0.0 | 0.0 | 0.00 | 0.00 | 0.00 | 93 | 1020.3 |
| 20260506130032 | 46 | 0 | 0.0 | 0.0 | 0.00 | 0.00 | 0.00 | 93 | 1020.1 |
| 20260506124536 | 46 | 0 | 0.0 | 0.0 | 0.00 | 0.00 | 0.00 | 93 | 1020.0 |
| 20260506123035 | 46 | 0 | 0.0 | 0.0 | 0.00 | 0.00 | 0.00 | 93 | 1020.0 |
| 20260506121533 | 47 | 0 | 0.0 | 0.0 | 0.00 | 0.00 | 0.00 | 93 | 1020.0 |
| 20260506120046 | 47 | 0 | 0.0 | 0.0 | 0.00 | 0.00 | 0.00 | 93 | 1020.1 |
| 20260506114536 | 47 | 0 | 0.0 | 0.0 | 0.00 | 0.00 | 0.00 | 92 | 1020.2 |
| 20260506113045 | 47 | 0 | 0.0 | 0.0 | 0.00 | 0.00 | 0.00 | 92 | 1020.1 |
| 20260506111533 | 47 | 0 | 0.0 | 0.0 | 0.00 | 0.00 | 0.00 | 92 | 1020.2 |
| 20260506110036 | 48 | 0 | 0.0 | 1.0 | 0.00 | 0.00 | 0.00 | 92 | 1020.2 |
| 20260506104546 | 48 | 0 | 0.0 | 0.0 | 0.00 | 0.00 | 0.00 | 92 | 1020.1 |
| 20260506103037 | 48 | 0 | 0.0 | 0.0 | 0.00 | 0.00 | 0.00 | 92 | 1020.0 |
| 20260506101545 | 48 | 0 | 0.0 | 0.0 | 0.00 | 0.00 | 0.00 | 92 | 1020.1 |
| 20260506100035 | 48 | 0 | 0.0 | 0.0 | 0.00 | 0.00 | 0.00 | 92 | 1020.0 |
| 20260506094534 | 49 | 0 | 0.0 | 0.0 | 0.00 | 0.00 | 0.00 | 92 | 1020.2 |
| 20260506093032 | 49 | 0 | 0.0 | 0.0 | 0.00 | 0.00 | 0.00 | 91 | 1020.1 |
| 20260506091537 | 50 | 0 | 0.0 | 0.0 | 0.00 | 0.00 | 0.00 | 91 | 1020.2 |
| 20260506090036 | 50 | 0 | 0.0 | 1.0 | 0.00 | 0.00 | 0.00 | 92 | 1020.3 |
| 20260506084540 | 50 | 0 | 0.0 | 0.0 | 0.00 | 0.00 | 0.00 | 90 | 1020.3 |
| 20260506083034 | 50 | 0 | 0.0 | 0.0 | 0.00 | 0.00 | 0.00 | 91 | 1020.4 |
| 20260506081536 | 51 | 0 | 0.0 | 0.0 | 0.00 | 0.00 | 0.00 | 90 | 1020.5 |
| 20260506073037 | 52 | 0 | 0.0 | 3.0 | 0.00 | 0.00 | 0.00 | 90 | 1020.4 |
| 20260506071533 | 52 | 0 | 0.0 | 3.0 | 0.00 | 0.00 | 0.00 | 90 | 1020.4 |
| 20260506061535 | 53 | 0 | 0.0 | 1.0 | 0.00 | 0.00 | 0.00 | 89 | 1019.9 |
| 20260506044540 | 54 | 0 | 0.0 | 2.0 | 0.00 | 0.00 | 0.00 | 85 | 1019.3 |
| 20260506043037 | 55 | 0 | 0.0 | 3.0 | 0.00 | 0.00 | 0.00 | 84 | 1019.2 |
| 20260506041538 | 55 | 0 | 0.0 | 2.0 | 0.00 | 0.00 | 0.00 | 84 | 1019.0 |
| 20260506040040 | 55 | 0 | 0.0 | 4.0 | 0.00 | 0.00 | 0.00 | 83 | 1018.9 |
| 20260506034535 | 56 | 311 | 1.0 | 4.0 | 0.00 | 0.00 | 0.00 | 82 | 1018.7 |
| 20260506033035 | 56 | 0 | 0.0 | 5.0 | 0.00 | 0.00 | 0.00 | 81 | 1018.4 |
| 20260506031530 | 57 | 327 | 1.0 | 8.0 | 0.00 | 0.00 | 0.00 | 80 | 1018.4 |
| 20260506030036 | 57 | 355 | 2.0 | 9.0 | 0.00 | 0.00 | 0.00 | 78 | 1018.2 |
| 20260506024538 | 58 | 306 | 0.0 | 8.0 | 0.00 | 0.00 | 0.00 | 76 | 1017.9 |
| 20260506023046 | 59 | 5 | 2.0 | 10.0 | 0.00 | 0.00 | 0.00 | 73 | 1017.8 |
| 20260506021535 | 60 | 291 | 0.0 | 4.0 | 0.00 | 0.00 | 0.00 | 73 | 1017.5 |
| 20260506020034 | 60 | 217 | 2.0 | 10.0 | 0.00 | 0.00 | 0.00 | 73 | 1017.4 |
| 20260506014538 | 60 | 221 | 2.0 | 10.0 | 0.00 | 0.00 | 0.00 | 73 | 1017.1 |
| 20260506013034 | 62 | 259 | 1.0 | 10.0 | 0.00 | 0.00 | 0.00 | 72 | 1017.0 |
| 20260506011535 | 62 | 312 | 0.0 | 12.0 | 0.00 | 0.00 | 0.00 | 71 | 1017.0 |
| 20260506010045 | 64 | 235 | 2.0 | 14.0 | 0.00 | 0.00 | 0.00 | 68 | 1017.1 |
| 20260506004541 | 65 | 192 | 2.0 | 12.0 | 0.00 | 0.00 | 0.00 | 67 | 1017.1 |
| 20260506003035 | 64 | 220 | 3.0 | 12.0 | 0.00 | 0.00 | 0.00 | 69 | 1017.0 |
| 20260506001542 | 64 | 268 | 3.0 | 11.0 | 0.00 | 0.00 | 0.00 | 68 | 1017.0 |
| 20260506000034 | 64 | 259 | 4.0 | 11.0 | 0.00 | 0.00 | 0.00 | 68 | 1016.9 |
| 20260505234555 | 64 | 276 | 4.0 | 13.0 | 0.00 | 0.00 | 0.00 | 68 | 1017.0 |
| 20260505233039 | 64 | 188 | 2.0 | 12.0 | 0.00 | 0.00 | 0.00 | 68 | 1017.1 |
| 20260505231536 | 66 | 266 | 3.0 | 10.0 | 0.00 | 0.00 | 0.00 | 63 | 1017.0 |
| 20260505230034 | 68 | 150 | 2.0 | 11.0 | 0.00 | 0.00 | 0.00 | 61 | 1017.2 |
| 20260505224536 | 66 | 284 | 2.0 | 12.0 | 0.00 | 0.00 | 0.00 | 65 | 1017.2 |
| 20260505223034 | 66 | 268 | 4.0 | 12.0 | 0.00 | 0.00 | 0.00 | 64 | 1017.3 |
| 20260505221536 | 64 | 237 | 4.0 | 11.0 | 0.00 | 0.00 | 0.00 | 66 | 1017.5 |
| 20260505220035 | 64 | 220 | 4.0 | 14.0 | 0.00 | 0.00 | 0.00 | 66 | 1017.5 |
| 20260505214558 | 65 | 290 | 3.0 | 13.0 | 0.00 | 0.00 | 0.00 | 64 | 1017.8 |
| 20260505213036 | 63 | 236 | 2.0 | 11.0 | 0.00 | 0.00 | 0.00 | 66 | 1017.9 |
| 20260505211532 | 64 | 281 | 5.0 | 12.0 | 0.00 | 0.00 | 0.00 | 63 | 1018.0 |
| 20260505210031 | 67 | 200 | 2.0 | 8.0 | 0.00 | 0.00 | 0.00 | 60 | 1017.9 |
| 20260505204537 | 63 | 309 | 1.0 | 14.0 | 0.00 | 0.00 | 0.00 | 68 | 1017.9 |
| 20260505203038 | 64 | 140 | 4.0 | 12.0 | 0.00 | 0.00 | 0.00 | 65 | 1018.0 |
| 20260505201536 | 65 | 312 | 1.0 | 10.0 | 0.00 | 0.00 | 0.00 | 64 | 1018.0 |
| 20260505200032 | 63 | 211 | 4.0 | 12.0 | 0.00 | 0.00 | 0.00 | 67 | 1017.9 |
| 20260505194544 | 63 | 38 | 3.0 | 13.0 | 0.00 | 0.00 | 0.00 | 64 | 1017.9 |
| 20260505193036 | 64 | 247 | 3.0 | 14.0 | 0.00 | 0.00 | 0.00 | 64 | 1017.8 |
| 20260505191534 | 64 | 241 | 5.0 | 14.0 | 0.00 | 0.00 | 0.00 | 64 | 1017.9 |